createdAt,value
2022-08-21T00:01:53.211Z,100.00
2022-08-21T00:04:20.936Z,100.00
2022-08-21T00:06:49.412Z,100.00
2022-08-21T00:09:16.402Z,100.00
2022-08-21T00:11:42.840Z,100.00
2022-08-21T00:14:10.664Z,100.00
2022-08-21T00:16:37.314Z,100.00
2022-08-21T00:19:04.533Z,100.00
2022-08-21T00:21:30.973Z,100.00
2022-08-21T00:23:57.551Z,100.00
2022-08-21T00:26:24.023Z,100.00
2022-08-21T00:28:50.542Z,100.00
2022-08-21T00:31:17.931Z,100.00
2022-08-21T00:33:45.233Z,100.00
2022-08-21T00:36:12.061Z,100.00
2022-08-21T00:38:38.650Z,100.00
2022-08-21T00:41:21.136Z,100.00
2022-08-21T00:43:56.098Z,100.00
2022-08-21T00:46:23.343Z,100.00
2022-08-21T00:48:57.230Z,100.00
2022-08-21T00:51:38.377Z,100.00
2022-08-21T00:54:06.350Z,100.00
2022-08-21T00:56:38.553Z,100.00
2022-08-21T00:59:08.322Z,100.00
2022-08-21T01:01:35.246Z,100.00
2022-08-21T01:04:02.510Z,100.00
2022-08-21T01:06:28.955Z,100.00
2022-08-21T01:08:55.612Z,100.00
2022-08-21T01:11:22.291Z,100.00
2022-08-21T01:13:49.341Z,100.00
2022-08-21T01:16:19.633Z,100.00
2022-08-21T01:18:46.797Z,100.00
2022-08-21T01:21:28.296Z,100.00
2022-08-21T01:23:57.781Z,100.00
2022-08-21T01:26:34.267Z,100.00
2022-08-21T01:29:10.976Z,100.00
2022-08-21T01:31:38.155Z,100.00
2022-08-21T01:34:05.339Z,100.00
2022-08-21T01:36:31.866Z,100.00
2022-08-21T01:38:58.824Z,100.00
2022-08-21T01:41:25.360Z,100.00
2022-08-21T01:43:52.051Z,100.00
2022-08-21T01:46:19.907Z,100.00
2022-08-21T01:48:46.748Z,100.00
2022-08-21T01:51:13.280Z,100.00
2022-08-21T01:53:39.926Z,100.00
2022-08-21T01:56:12.230Z,100.00
2022-08-21T01:58:43.550Z,100.00
2022-08-21T02:01:10.543Z,100.00
2022-08-21T02:03:38.119Z,100.00
2022-08-21T02:06:06.139Z,100.00
2022-08-21T02:08:32.797Z,100.00
2022-08-21T02:11:00.082Z,100.00
2022-08-21T02:13:27.173Z,100.00
2022-08-21T02:15:54.028Z,100.00
2022-08-21T02:18:20.557Z,100.00
2022-08-21T02:20:55.268Z,100.00
2022-08-21T02:23:26.627Z,100.00
2022-08-21T02:26:05.485Z,100.00
2022-08-21T02:28:32.580Z,100.00
2022-08-21T02:30:59.128Z,100.00
2022-08-21T02:33:26.179Z,100.00
2022-08-21T02:35:54.021Z,100.00
2022-08-21T02:38:27.150Z,100.00
2022-08-21T02:40:54.788Z,100.00
2022-08-21T02:43:22.942Z,100.00
2022-08-21T02:45:50.027Z,100.00
2022-08-21T02:48:21.166Z,100.00
2022-08-21T02:50:52.868Z,100.00
2022-08-21T02:53:20.796Z,100.00
2022-08-21T02:55:49.827Z,100.00
2022-08-21T02:58:18.913Z,100.00
2022-08-21T03:00:45.734Z,100.00
2022-08-21T03:03:15.570Z,100.00
2022-08-21T03:05:43.728Z,100.00
2022-08-21T03:08:12.276Z,100.00
2022-08-21T03:10:43.192Z,100.00
2022-08-21T03:13:10.457Z,100.00
2022-08-21T03:15:37.342Z,100.00
2022-08-21T03:18:05.617Z,100.00
2022-08-21T03:20:33.590Z,100.00
2022-08-21T03:23:01.409Z,100.00
2022-08-21T03:25:33.736Z,100.00
2022-08-21T03:28:10.600Z,100.00
2022-08-21T03:30:39.783Z,100.00
2022-08-21T03:33:06.350Z,100.00
2022-08-21T03:35:32.795Z,100.00
2022-08-21T03:37:59.275Z,100.00
2022-08-21T03:40:26.014Z,100.00
2022-08-21T03:42:52.545Z,100.00
2022-08-21T03:45:19.707Z,100.00
2022-08-21T03:47:58.288Z,100.00
2022-08-21T03:50:27.143Z,100.00
2022-08-21T03:52:53.812Z,100.00
2022-08-21T03:55:20.373Z,100.00
2022-08-21T03:57:46.871Z,100.00
2022-08-21T04:00:15.565Z,100.00
2022-08-21T04:02:44.136Z,100.00
2022-08-21T04:05:12.848Z,100.00
2022-08-21T04:07:39.640Z,100.00
2022-08-21T04:10:07.792Z,100.00
2022-08-21T04:12:34.306Z,100.00
2022-08-21T04:15:02.702Z,100.00
2022-08-21T04:17:29.299Z,100.00
2022-08-21T04:19:58.176Z,100.00
2022-08-21T04:22:24.568Z,100.00
2022-08-21T04:24:51.067Z,100.00
2022-08-21T04:27:17.476Z,100.00
2022-08-21T04:29:43.998Z,100.00
2022-08-21T04:32:10.486Z,100.00
2022-08-21T04:34:37.331Z,100.00
2022-08-21T04:37:06.625Z,100.00
2022-08-21T04:39:33.126Z,100.00
2022-08-21T04:41:59.641Z,100.00
2022-08-21T04:44:26.198Z,100.00
2022-08-21T04:46:52.714Z,100.00
2022-08-21T04:49:21.979Z,100.00
2022-08-21T04:51:48.488Z,100.00
2022-08-21T04:54:23.319Z,100.00
2022-08-21T04:57:00.461Z,100.00
2022-08-21T04:59:32.371Z,100.00
2022-08-21T05:02:00.725Z,100.00
2022-08-21T05:04:31.850Z,100.00
2022-08-21T05:07:02.819Z,100.00
2022-08-21T05:09:29.649Z,100.00
2022-08-21T05:11:56.871Z,100.00
2022-08-21T05:14:23.357Z,100.00
2022-08-21T05:16:49.818Z,100.00
2022-08-21T05:19:16.200Z,100.00
2022-08-21T05:21:44.792Z,100.00
2022-08-21T05:24:12.351Z,100.00
2022-08-21T05:26:46.104Z,100.00
2022-08-21T05:29:14.808Z,100.00
2022-08-21T05:31:41.853Z,100.00
2022-08-21T05:34:09.040Z,100.00
2022-08-21T05:36:35.936Z,100.00
2022-08-21T05:39:03.063Z,100.00
2022-08-21T05:41:29.497Z,100.00
2022-08-21T05:43:56.053Z,100.00
2022-08-21T05:46:22.636Z,100.00
2022-08-21T05:48:49.722Z,98.21
2022-08-21T05:51:17.033Z,94.64
2022-08-21T05:53:44.458Z,89.35
2022-08-21T05:56:12.628Z,88.82
2022-08-21T05:58:39.443Z,90.25
2022-08-21T06:01:07.454Z,90.92
2022-08-21T06:03:37.762Z,93.33
2022-08-21T06:06:04.662Z,96.15
2022-08-21T06:08:31.109Z,96.50
2022-08-21T06:10:59.993Z,98.32
2022-08-21T06:13:27.813Z,97.80
2022-08-21T06:16:16.055Z,98.90
2022-08-21T06:18:45.654Z,100.00
2022-08-21T06:21:13.861Z,99.39
2022-08-21T06:23:40.794Z,99.10
2022-08-21T06:26:10.986Z,98.26
2022-08-21T06:28:38.024Z,98.01
2022-08-21T06:31:38.029Z,98.09
2022-08-21T06:34:04.492Z,97.54
2022-08-21T06:36:30.916Z,96.56
2022-08-21T06:38:58.007Z,96.56
2022-08-21T06:41:26.431Z,96.84
2022-08-21T06:43:54.751Z,95.22
2022-08-21T06:46:21.217Z,93.36
2022-08-21T06:48:47.894Z,92.00
2022-08-21T06:51:14.261Z,90.26
2022-08-21T06:53:40.672Z,90.35
2022-08-21T06:56:07.174Z,87.98
2022-08-21T06:58:33.584Z,88.28
2022-08-21T07:01:01.185Z,86.35
2022-08-21T07:03:30.943Z,85.78
2022-08-21T07:06:00.395Z,86.13
2022-08-21T07:08:28.659Z,87.19
2022-08-21T07:10:58.652Z,86.45
2022-08-21T07:13:25.331Z,87.56
2022-08-21T07:15:54.704Z,86.07
2022-08-21T07:18:21.108Z,85.25
2022-08-21T07:20:48.087Z,86.49
2022-08-21T07:23:43.558Z,85.22
2022-08-21T07:26:10.512Z,84.08
2022-08-21T07:28:37.394Z,82.35
2022-08-21T07:31:05.146Z,80.70
2022-08-21T07:33:34.340Z,78.90
2022-08-21T07:36:01.104Z,77.72
2022-08-21T07:38:28.111Z,77.27
2022-08-21T07:40:57.015Z,75.21
2022-08-21T07:43:23.643Z,74.80
2022-08-21T07:45:50.391Z,76.24
2022-08-21T07:48:17.059Z,76.21
2022-08-21T07:50:44.221Z,74.28
2022-08-21T07:53:10.715Z,73.61
2022-08-21T07:55:37.330Z,73.72
2022-08-21T07:58:03.994Z,73.45
2022-08-21T08:00:30.719Z,72.12
2022-08-21T08:02:58.611Z,72.24
2022-08-21T08:05:29.209Z,71.61
2022-08-21T08:07:56.492Z,71.03
2022-08-21T08:10:24.032Z,71.03
2022-08-21T08:12:52.359Z,67.45
2022-08-21T08:15:22.548Z,69.18
2022-08-21T08:17:49.408Z,69.13
2022-08-21T08:20:17.006Z,66.47
2022-08-21T08:22:43.698Z,66.40
2022-08-21T08:25:18.017Z,62.75
2022-08-21T08:27:44.725Z,63.91
2022-08-21T08:30:13.799Z,62.04
2022-08-21T08:32:41.029Z,61.81
2022-08-21T08:35:08.466Z,61.92
2022-08-21T08:37:38.606Z,61.90
2022-08-21T08:40:29.815Z,60.69
2022-08-21T08:42:56.521Z,59.01
2022-08-21T08:45:27.275Z,59.17
2022-08-21T08:47:59.411Z,58.95
2022-08-21T08:50:41.610Z,59.49
2022-08-21T08:53:23.123Z,57.07
2022-08-21T08:55:52.944Z,56.56
2022-08-21T08:58:31.198Z,56.62
2022-08-21T09:00:58.512Z,54.87
2022-08-21T09:03:26.282Z,54.64
2022-08-21T09:06:07.568Z,53.44
2022-08-21T09:08:50.178Z,54.60
2022-08-21T09:11:28.230Z,55.07
2022-08-21T09:14:03.601Z,55.68
2022-08-21T09:16:40.023Z,56.21
2022-08-21T09:19:26.334Z,55.70
2022-08-21T09:22:04.189Z,56.01
2022-08-21T09:24:51.408Z,55.32
2022-08-21T09:27:19.926Z,55.22
2022-08-21T09:29:48.995Z,54.71
2022-08-21T09:32:36.955Z,55.65
2022-08-21T09:35:20.888Z,54.57
2022-08-21T09:37:54.986Z,54.29
2022-08-21T09:40:24.534Z,53.92
2022-08-21T09:42:57.859Z,53.64
2022-08-21T09:45:24.628Z,53.51
2022-08-21T09:47:51.161Z,53.66
2022-08-21T09:50:22.515Z,52.11
2022-08-21T09:52:53.213Z,52.35
2022-08-21T09:55:47.881Z,51.95
2022-08-21T09:58:15.718Z,52.68
2022-08-21T10:00:43.253Z,52.33
2022-08-21T10:03:19.684Z,52.45
2022-08-21T10:05:55.295Z,52.19
2022-08-21T10:08:23.349Z,53.60
2022-08-21T10:11:06.993Z,51.20
2022-08-21T10:13:54.694Z,53.44
2022-08-21T10:16:54.004Z,52.53
2022-08-21T10:19:23.610Z,52.65
2022-08-21T10:22:03.227Z,51.52
2022-08-21T10:24:58.883Z,49.47
2022-08-21T10:27:27.915Z,50.47
2022-08-21T10:30:14.278Z,50.03
2022-08-21T10:33:02.382Z,49.50
2022-08-21T10:35:34.394Z,48.49
2022-08-21T10:38:48.686Z,48.79
2022-08-21T10:41:36.480Z,49.02
2022-08-21T10:44:29.671Z,49.13
2022-08-21T10:46:59.090Z,48.84
2022-08-21T10:49:41.060Z,48.90
2022-08-21T10:52:36.645Z,47.84
2022-08-21T10:55:12.689Z,48.18
2022-08-21T10:57:39.113Z,48.78
2022-08-21T11:00:16.335Z,48.38
2022-08-21T11:02:50.936Z,48.88
2022-08-21T11:05:50.751Z,46.73
2022-08-21T11:08:25.126Z,46.92
2022-08-21T11:11:15.719Z,46.66
2022-08-21T11:13:52.537Z,46.55
2022-08-21T11:16:42.778Z,46.51
2022-08-21T11:19:29.758Z,46.51
2022-08-21T11:22:36.100Z,46.46
2022-08-21T11:25:23.533Z,45.81
2022-08-21T11:27:55.434Z,45.25
2022-08-21T11:30:25.000Z,45.95
2022-08-21T11:33:28.310Z,45.33
2022-08-21T11:36:20.993Z,44.70
2022-08-21T11:38:58.093Z,45.61
2022-08-21T11:41:49.050Z,46.22
2022-08-21T11:44:38.199Z,45.12
2022-08-21T11:47:23.348Z,44.36
2022-08-21T11:50:34.357Z,44.05
2022-08-21T11:53:02.652Z,43.64
2022-08-21T11:55:47.664Z,43.25
2022-08-21T12:01:22.786Z,43.87
2022-08-21T12:04:09.704Z,45.77
2022-08-21T12:06:42.404Z,44.70
2022-08-21T12:09:29.331Z,43.51
2022-08-21T12:12:02.025Z,45.14
2022-08-21T12:14:52.252Z,44.29
2022-08-21T12:17:25.023Z,43.79
2022-08-21T12:20:15.465Z,44.89
2022-08-21T12:22:42.662Z,42.93
2022-08-21T12:25:21.373Z,43.29
2022-08-21T12:28:03.498Z,43.64
2022-08-21T12:30:29.847Z,43.87
2022-08-21T12:33:06.430Z,42.93
2022-08-21T12:35:44.355Z,44.08
2022-08-21T12:38:21.978Z,43.31
2022-08-21T12:40:54.674Z,42.49
2022-08-21T12:43:58.962Z,42.54
2022-08-21T12:46:35.397Z,41.42
2022-08-21T12:49:13.509Z,41.22
2022-08-21T12:51:53.630Z,41.39
2022-08-21T12:54:32.634Z,42.26
2022-08-21T12:57:04.721Z,42.07
2022-08-21T12:59:32.650Z,41.38
2022-08-21T13:02:03.889Z,40.93
2022-08-21T13:04:38.588Z,41.31
2022-08-21T13:07:11.789Z,40.58
2022-08-21T13:09:52.113Z,39.45
2022-08-21T13:12:20.915Z,39.64
2022-08-21T13:14:49.256Z,40.91
2022-08-21T13:17:26.684Z,40.66
2022-08-21T13:20:02.890Z,40.57
2022-08-21T13:22:34.363Z,39.97
2022-08-21T13:25:06.747Z,42.76
2022-08-21T13:27:35.067Z,42.04
2022-08-21T13:30:12.481Z,40.43
2022-08-21T13:32:46.318Z,39.03
2022-08-21T13:35:19.459Z,38.19
2022-08-21T13:37:48.397Z,38.03
2022-08-21T13:40:24.465Z,37.56
2022-08-21T13:42:52.748Z,38.22
2022-08-21T13:45:28.358Z,39.67
2022-08-21T13:47:56.291Z,39.01
2022-08-21T13:50:25.214Z,38.17
2022-08-21T13:53:06.908Z,38.12
2022-08-21T13:55:44.485Z,37.17
2022-08-21T13:58:12.384Z,39.08
2022-08-21T14:00:50.564Z,39.47
2022-08-21T14:03:29.626Z,37.47
2022-08-21T14:05:56.529Z,38.30
2022-08-21T14:08:35.593Z,38.65
2022-08-21T14:11:05.098Z,37.88
2022-08-21T14:13:38.188Z,36.54
2022-08-21T14:16:16.994Z,35.73
2022-08-21T14:19:03.522Z,35.89
2022-08-21T14:21:36.752Z,35.37
2022-08-21T14:24:15.266Z,34.36
2022-08-21T14:26:49.901Z,34.48
2022-08-21T14:29:18.541Z,34.79
2022-08-21T14:31:51.034Z,36.85
2022-08-21T14:34:19.914Z,35.93
2022-08-21T14:36:47.242Z,37.25
2022-08-21T14:39:13.628Z,37.26
2022-08-21T14:41:40.192Z,37.73
2022-08-21T14:44:09.392Z,37.80
2022-08-21T14:46:45.814Z,37.80
2022-08-21T14:49:22.186Z,38.48
2022-08-21T14:51:53.976Z,39.14
2022-08-21T14:54:20.937Z,39.24
2022-08-21T14:56:49.847Z,39.74
2022-08-21T14:59:21.778Z,38.64
2022-08-21T15:01:48.481Z,39.40
2022-08-21T15:04:15.129Z,40.19
2022-08-21T15:06:41.563Z,39.67
2022-08-21T15:09:08.182Z,39.08
2022-08-21T15:11:41.517Z,39.37
2022-08-21T15:14:16.567Z,39.58
2022-08-21T15:16:43.060Z,40.13
2022-08-21T15:19:09.542Z,40.59
2022-08-21T15:21:35.982Z,40.57
2022-08-21T15:24:02.608Z,40.75
2022-08-21T15:26:29.192Z,40.70
2022-08-21T15:28:55.847Z,39.92
2022-08-21T15:31:22.336Z,40.84
2022-08-21T15:33:48.748Z,41.24
2022-08-21T15:36:15.185Z,41.87
2022-08-21T15:38:41.591Z,42.25
2022-08-21T15:41:08.425Z,41.36
2022-08-21T15:43:48.465Z,41.48
2022-08-21T15:46:17.695Z,41.73
2022-08-21T15:48:44.839Z,41.71
2022-08-21T15:51:12.140Z,42.69
2022-08-21T15:53:40.825Z,42.24
2022-08-21T15:56:23.589Z,41.56
2022-08-21T15:59:00.314Z,42.30
2022-08-21T16:01:26.945Z,42.40
2022-08-21T16:03:55.812Z,42.63
2022-08-21T16:06:37.968Z,42.58
2022-08-21T16:09:08.821Z,42.73
2022-08-21T16:11:36.331Z,42.79
2022-08-21T16:14:02.851Z,43.56
2022-08-21T16:16:30.708Z,43.89
2022-08-21T16:18:58.274Z,43.64
2022-08-21T16:21:24.907Z,43.66
2022-08-21T16:23:52.097Z,44.16
2022-08-21T16:26:18.810Z,44.68
2022-08-21T16:28:49.805Z,44.23
2022-08-21T16:31:17.018Z,43.61
2022-08-21T16:33:49.539Z,44.79
2022-08-21T16:36:17.612Z,44.53
2022-08-21T16:38:44.155Z,44.48
2022-08-21T16:41:14.680Z,44.43
2022-08-21T16:43:43.029Z,44.46
2022-08-21T16:46:14.353Z,44.65
2022-08-21T16:48:44.758Z,43.87
2022-08-21T16:51:12.538Z,43.59
2022-08-21T16:53:39.031Z,43.42
2022-08-21T16:56:06.831Z,43.57
2022-08-21T16:58:37.905Z,43.31
2022-08-21T17:01:08.528Z,43.05
2022-08-21T17:03:39.177Z,42.78
2022-08-21T17:06:07.311Z,42.81
2022-08-21T17:08:33.789Z,42.69
2022-08-21T17:11:01.742Z,43.17
2022-08-21T17:13:29.593Z,43.38
2022-08-21T17:15:57.062Z,42.61
2022-08-21T17:18:24.821Z,43.12
2022-08-21T17:20:51.950Z,43.95
2022-08-21T17:23:19.656Z,44.04
2022-08-21T17:25:50.932Z,44.26
2022-08-21T17:28:25.242Z,44.48
2022-08-21T17:30:54.782Z,44.60
2022-08-21T17:33:23.380Z,45.20
2022-08-21T17:35:49.828Z,45.61
2022-08-21T17:38:16.357Z,45.51
2022-08-21T17:40:43.251Z,46.01
2022-08-21T17:43:13.588Z,46.96
2022-08-21T17:45:40.390Z,46.32
2022-08-21T17:48:07.657Z,46.58
2022-08-21T17:50:37.690Z,47.50
2022-08-21T17:53:05.171Z,47.66
2022-08-21T17:55:33.989Z,48.39
2022-08-21T17:58:02.243Z,48.54
2022-08-21T18:00:30.120Z,48.70
2022-08-21T18:03:03.278Z,48.99
2022-08-21T18:05:30.216Z,49.86
2022-08-21T18:07:57.438Z,49.96
2022-08-21T18:10:25.237Z,50.74
2022-08-21T18:12:52.413Z,51.45
2022-08-21T18:15:20.086Z,51.87
2022-08-21T18:17:50.681Z,53.21
2022-08-21T18:20:20.565Z,53.35
2022-08-21T18:22:47.562Z,53.34
2022-08-21T18:25:14.547Z,54.12
2022-08-21T18:27:45.530Z,54.90
2022-08-21T18:30:16.823Z,55.48
2022-08-21T18:32:44.132Z,55.29
2022-08-21T18:35:12.805Z,55.76
2022-08-21T18:37:39.617Z,56.60
2022-08-21T18:40:08.879Z,57.20
2022-08-21T18:42:43.579Z,57.17
2022-08-21T18:45:21.846Z,57.46
2022-08-21T18:47:53.515Z,58.07
2022-08-21T18:50:24.831Z,57.67
2022-08-21T18:52:54.497Z,57.88
2022-08-21T18:55:23.068Z,58.31
2022-08-21T18:57:51.096Z,58.66
2022-08-21T19:00:23.348Z,59.39
2022-08-21T19:02:51.173Z,59.69
2022-08-21T19:05:20.011Z,59.42
2022-08-21T19:07:46.991Z,60.23
2022-08-21T19:10:27.780Z,59.73
2022-08-21T19:12:57.853Z,60.88
2022-08-21T19:15:24.584Z,60.53
2022-08-21T19:17:54.418Z,60.68
2022-08-21T19:20:36.505Z,61.30
2022-08-21T19:23:06.578Z,61.04
2022-08-21T19:25:34.788Z,61.72
2022-08-21T19:28:11.083Z,61.54
2022-08-21T19:30:45.694Z,61.97
2022-08-21T19:33:23.299Z,61.80
2022-08-21T19:38:38.231Z,62.22
2022-08-21T19:41:07.285Z,62.30
2022-08-21T19:43:41.788Z,62.22
2022-08-21T19:46:08.490Z,62.86
2022-08-21T19:48:37.257Z,63.04
2022-08-21T19:51:04.833Z,62.93
2022-08-21T19:53:31.537Z,63.59
2022-08-21T19:55:58.186Z,64.36
2022-08-21T19:58:39.051Z,64.31
2022-08-21T20:03:58.039Z,63.89
2022-08-21T20:06:26.268Z,63.94
2022-08-21T20:08:55.262Z,64.60
2022-08-21T20:11:31.543Z,64.32
2022-08-21T20:13:59.382Z,64.22
2022-08-21T20:16:28.677Z,64.50
2022-08-21T20:18:55.782Z,64.71
2022-08-21T20:21:22.711Z,64.64
2022-08-21T20:23:49.695Z,65.41
2022-08-21T20:26:17.406Z,64.98
2022-08-21T20:28:45.502Z,65.09
2022-08-21T20:31:14.704Z,65.22
2022-08-21T20:33:42.084Z,65.86
2022-08-21T20:36:08.734Z,65.40
2022-08-21T20:38:35.858Z,65.44
2022-08-21T20:41:03.553Z,65.58
2022-08-21T20:43:32.169Z,65.88
2022-08-21T20:46:00.687Z,65.43
2022-08-21T20:48:29.680Z,65.40
2022-08-21T20:51:03.068Z,66.15
2022-08-21T20:53:54.521Z,65.67
2022-08-21T20:57:03.741Z,66.70
2022-08-21T20:59:33.209Z,67.38
2022-08-21T21:02:14.300Z,67.15
2022-08-21T21:04:48.377Z,67.04
2022-08-21T21:07:24.893Z,67.30
2022-08-21T21:09:55.353Z,67.34
2022-08-21T21:12:37.521Z,67.83
2022-08-21T21:15:14.057Z,67.68
2022-08-21T21:18:02.309Z,67.74
2022-08-21T21:20:40.145Z,68.49
2022-08-21T21:23:37.846Z,67.59
2022-08-21T21:26:15.218Z,67.43
2022-08-21T21:28:55.562Z,67.89
2022-08-21T21:31:26.491Z,68.20
2022-08-21T21:33:54.113Z,68.33
2022-08-21T21:36:43.748Z,68.97
2022-08-21T21:39:16.565Z,68.67
2022-08-21T21:41:54.400Z,68.65
2022-08-21T21:44:32.955Z,68.65
2022-08-21T21:47:06.977Z,68.24
2022-08-21T21:49:56.229Z,68.64
2022-08-21T21:52:47.521Z,68.75
2022-08-21T21:55:45.551Z,68.67
2022-08-21T21:58:16.712Z,69.05
2022-08-21T22:00:52.404Z,69.37
2022-08-21T22:03:30.561Z,69.96
2022-08-21T22:06:09.966Z,70.15
2022-08-21T22:08:54.390Z,70.25
2022-08-21T22:11:45.903Z,70.52
2022-08-21T22:14:22.766Z,70.87
2022-08-21T22:16:50.592Z,71.33
2022-08-21T22:19:26.398Z,71.60
2022-08-21T22:22:14.195Z,71.97
2022-08-21T22:24:47.543Z,72.19
2022-08-21T22:27:41.203Z,72.55
2022-08-21T22:30:14.045Z,72.71
2022-08-21T22:32:45.829Z,73.00
2022-08-21T22:35:22.380Z,72.61
2022-08-21T22:37:59.267Z,73.01
2022-08-21T22:40:32.593Z,73.62
2022-08-21T22:43:19.067Z,74.15
2022-08-21T22:46:04.080Z,74.81
2022-08-21T22:48:36.404Z,75.94
2022-08-21T22:51:10.162Z,75.37
2022-08-21T22:53:42.550Z,75.85
2022-08-21T22:56:10.575Z,75.67
2022-08-21T22:58:52.877Z,76.85
2022-08-21T23:01:22.440Z,77.38
2022-08-21T23:03:58.755Z,77.69
2022-08-21T23:06:49.338Z,77.91
2022-08-21T23:09:28.018Z,78.33
2022-08-21T23:11:58.237Z,78.33
2022-08-21T23:14:25.770Z,78.34
2022-08-21T23:16:59.593Z,78.28
2022-08-21T23:19:38.153Z,78.80
2022-08-21T23:22:32.405Z,79.98
2022-08-21T23:25:37.649Z,79.64
2022-08-21T23:28:26.312Z,80.30
2022-08-21T23:31:13.017Z,79.89
2022-08-21T23:34:10.997Z,79.88
2022-08-21T23:37:17.880Z,79.74
2022-08-21T23:40:13.958Z,79.99
2022-08-21T23:43:00.157Z,80.47
2022-08-21T23:45:38.874Z,80.77
2022-08-21T23:51:36.123Z,82.00
2022-08-21T23:54:22.525Z,83.16
2022-08-21T23:57:12.924Z,83.48
